tititudorancea.com
Station Historical Data
Daily Summary for Nil La, TWC- Units:  English    Metric   Both
« Previous Day
Next Day »
Daily Weekly Monthly Yearly Custom
  High: Low: Average:
Temperature: TemperatureF °F 45.5 °F 49.7 °F
Dew Point: DewpointF °F 40.4 °F 44.1 °F
Humidity: Humidity % 58 % 81 %
Wind Speed: WindSpeedMPH mph 1.2 mph 11.3 mph
Wind Gust: WindSpeedGustMPH mph - -
Wind:- - West
Pressure: PressureIn in 29.87 in -
Precipitation: 0 in    
Historical Graphs
 
 
Ararat weather Find more about Weather in Ararat, AU


 



 


Tabular Data for Nil La, TWC-
Time Temperature Dew Point Pressure Wind Wind Speed Wind Gust Humidity Rainfall Rate (Hourly)
TemperatureF °F DewpointF °F PressureIn in Calm     Humidity % HourlyPrecipIn in
00:04 46.9 °F 42.3 °F 30.24 in NW 4.6 mph 2.6 mph 84 % 0 in
00:09 47.1 °F 43.1 °F 30.24 in NW 9.2 mph 4.6 mph 86 % 0 in
00:14 47.8 °F 43.8 °F 30.23 in NW 7 mph 4.2 mph 86 % 0 in
00:19 48.4 °F 44.1 °F 30.23 in NW 8.1 mph 4.7 mph 85 % 0 in
00:24 48.7 °F 44.1 °F 30.23 in NW 10.4 mph 4.6 mph 84 % 0 in
00:29 48.9 °F 44.3 °F 30.23 in NW 5 mph 4.8 mph 84 % 0 in
00:34 49 °F 44.1 °F 30.23 in NW 4.6 mph 3.3 mph 83 % 0 in
00:39 48.9 °F 44 °F 30.23 in NW 5.8 mph 4.9 mph 83 % 0 in
00:44 48.6 °F 43.7 °F 30.23 in NW 5 mph 5.8 mph 83 % 0 in
00:49 48.8 °F 44.2 °F 30.23 in NW 6.9 mph 5.6 mph 84 % 0 in
00:54 49.1 °F 44.2 °F 30.23 in North 9.2 mph 4.4 mph 83 % 0 in
00:59 49.2 °F 44.3 °F 30.23 in NW 3.5 mph 2.9 mph 83 % 0 in
01:04 49.2 °F 44.3 °F 30.23 in NW 5.8 mph 4.8 mph 83 % 0 in
01:09 49.1 °F 44.2 °F 30.23 in NW 4.6 mph 3.9 mph 83 % 0 in
01:14 49.1 °F 44.2 °F 30.23 in North 5 mph 2.9 mph 83 % 0 in
01:19 49 °F 44.1 °F 30.23 in NW 3.5 mph 2.4 mph 83 % 0 in
01:24 48.6 °F 43.4 °F 30.23 in NW 3.5 mph 2.9 mph 82 % 0 in
01:29 47.5 °F 42.3 °F 30.23 in NW 4 mph 3 mph 82 % 0 in
01:34 46.6 °F 42 °F 30.22 in NW 5.8 mph 3.5 mph 84 % 0 in
01:39 46.1 °F 41.8 °F 30.22 in NW 4 mph 2.3 mph 85 % 0 in
01:44 45.9 °F 41.9 °F 30.22 in NW 3.5 mph 2.9 mph 86 % 0 in
01:49 45.8 °F 42.2 °F 30.22 in NW 3.5 mph 1.6 mph 87 % 0 in
01:54 45.6 °F 42 °F 30.22 in North 4 mph 3.8 mph 87 % 0 in
01:59 45.5 °F 42.2 °F 30.22 in NW 3.5 mph 2.7 mph 88 % 0 in
02:04 45.5 °F 42.2 °F 30.21 in NW 4.6 mph 3.5 mph 88 % 0 in
02:09 45.6 °F 42.3 °F 30.21 in NW 2.3 mph   88 % 0 in
02:14 45.5 °F 42.2 °F 30.21 in NW 1.2 mph 1 mph 88 % 0 in
02:19 45.6 °F 42.5 °F 30.21 in NW 4.6 mph 1.7 mph 89 % 0 in
02:24 45.9 °F 42.8 °F 30.21 in North 3.5 mph 2.4 mph 89 % 0 in
02:29 46.3 °F 43.2 °F 30.21 in NW 4.6 mph 3.8 mph 89 % 0 in
02:34 46.6 °F 43.2 °F 30.21 in North 5 mph 3.4 mph 88 % 0 in
02:39 46.6 °F 43.2 °F 30.21 in NW 4 mph 3.5 mph 88 % 0 in
02:44 46.7 °F 44.5 °F 30.20 in NW 3.5 mph 2.4 mph 92 % 0 in
02:49 46.9 °F 43.5 °F 30.20 in North 4.6 mph 2.6 mph 88 % 0 in
02:54 47 °F 43.6 °F 30.20 in NW 3.5 mph 4.6 mph 88 % 0 in
02:59 47.5 °F 43.8 °F 30.20 in NW 3.5 mph 3.6 mph 87 % 0 in
03:04 47.5 °F 43.5 °F 30.20 in NW 4.6 mph 3.1 mph 86 % 0 in
03:09 48.1 °F 43.8 °F 30.20 in NW 4.6 mph 2.3 mph 85 % 0 in
03:14 48.1 °F 43.5 °F 30.20 in NW 4 mph 1.8 mph 84 % 0 in
03:19 47.6 °F 43 °F 30.19 in NW 3.5 mph 2.5 mph 84 % 0 in
03:24 47.1 °F 42.5 °F 30.19 in NW 4.6 mph 4.2 mph 84 % 0 in
03:29 46.5 °F 42.2 °F 30.19 in NW 4 mph 4 mph 85 % 0 in
03:34 46.1 °F 42.1 °F 30.19 in NW 3.5 mph 1.5 mph 86 % 0 in
03:39 45.7 °F 41.8 °F 30.19 in NW 3 mph 1.5 mph 86 % 0 in
03:44 45.5 °F 41.9 °F 30.19 in North 4.6 mph 3.8 mph 87 % 0 in
03:49 45.8 °F 42.7 °F 30.19 in NW 6.9 mph 5 mph 89 % 0 in
03:54 46.1 °F 42.7 °F 30.18 in NW 4.6 mph 3.5 mph 88 % 0 in
03:59 46.4 °F 43 °F 30.19 in North 6.9 mph 4.3 mph 88 % 0 in
04:04 46.5 °F 42.8 °F 30.18 in North 5 mph 4 mph 87 % 0 in
04:09 46.6 °F 42.9 °F 30.19 in North 4.6 mph 3.6 mph 87 % 0 in
04:14 46.5 °F 42.8 °F 30.18 in North 4.6 mph 4.5 mph 87 % 0 in
04:19 46.6 °F 42.9 °F 30.18 in NW 5.8 mph 3.1 mph 87 % 0 in
04:24 46.7 °F 43 °F 30.18 in North 5.8 mph 5.2 mph 87 % 0 in
04:29 46.9 °F 43.2 °F 30.18 in NW 7 mph 3.8 mph 87 % 0 in
04:34 47.1 °F 43.4 °F 30.18 in NW 6.9 mph 4.1 mph 87 % 0 in
04:39 47.1 °F 43.1 °F 30.19 in NW 5.8 mph 4.1 mph 86 % 0 in
04:44 47.3 °F 43.3 °F 30.18 in NW 5.8 mph 4 mph 86 % 0 in
04:49 47.4 °F 43.4 °F 30.18 in NW 6.9 mph 3.8 mph 86 % 0 in
04:54 47.3 °F 43.3 °F 30.18 in NW 6.9 mph 4.2 mph 86 % 0 in
04:59 46.9 °F 42.9 °F 30.19 in NW 9.2 mph 4.8 mph 86 % 0 in
05:04 46.7 °F 43 °F 30.19 in NW 6 mph 4 mph 87 % 0 in
05:09 46.4 °F 42.7 °F 30.19 in NNW 6 mph 4.8 mph 87 % 0 in
05:14 46.4 °F 43.3 °F 30.18 in NNW 8.1 mph 5.4 mph 89 % 0 in
05:19 46.3 °F 43.2 °F 30.18 in NNW 4.6 mph 3.3 mph 89 % 0 in
05:24 46.1 °F 43 °F 30.18 in NNW 3.5 mph 2.7 mph 89 % 0 in
05:29 45.8 °F 43 °F 30.18 in NNW 7 mph 2.8 mph 90 % 0 in
05:34 46.3 °F 43.8 °F 30.18 in North 11.5 mph 6.2 mph 91 % 0 in
05:39 46.7 °F 44.2 °F 30.17 in NNW 10.4 mph 7.2 mph 91 % 0 in
05:44 46.9 °F 44.1 °F 30.17 in NNW 9 mph 5.3 mph 90 % 0 in
05:49 46.9 °F 44.1 °F 30.18 in NW 12.7 mph 6.9 mph 90 % 0 in
05:54 46.8 °F 44 °F 30.18 in NNW 13.8 mph 8.8 mph 90 % 0 in
05:59 46.7 °F 44.2 °F 30.18 in North 15 mph 10.7 mph 91 % 0 in
06:04 46.7 °F 44.2 °F 30.18 in NNW 15 mph 8.7 mph 91 % 0 in
06:09 46.7 °F 44.2 °F 30.17 in North 13.8 mph 7.2 mph 91 % 0 in
06:14 46.6 °F 44.1 °F 30.18 in North 10.4 mph 7 mph 91 % 0 in
06:19 46.5 °F 44 °F 30.18 in North 9.2 mph 5.8 mph 91 % 0 in
06:24 46.5 °F 44.3 °F 30.18 in North 6 mph 5.3 mph 92 % 0 in
06:29 46.5 °F 44.3 °F 30.18 in North 8 mph 5.6 mph 92 % 0 in
06:34 46.5 °F 44.3 °F 30.18 in North 6.9 mph 3.8 mph 92 % 0 in
06:39 46.4 °F 44.2 °F 30.18 in North 6.9 mph 4.4 mph 92 % 0 in
06:44 46.2 °F 44 °F 30.18 in North 9.2 mph 5.8 mph 92 % 0 in
06:49 46.2 °F 44 °F 30.17 in North 10.4 mph 3.9 mph 92 % 0 in
06:54 46.3 °F 44.1 °F 30.17 in NNW 13.8 mph 5.2 mph 92 % 0 in
06:59 46.4 °F 44.2 °F 30.17 in NNW 9.2 mph 6.6 mph 92 % 0 in
07:04 46.4 °F 44.2 °F 30.17 in NW 15 mph 5.6 mph 92 % 0 in
07:09 46.5 °F 44.3 °F 30.17 in NNW 11.5 mph 5.8 mph 92 % 0 in
07:14 46.5 °F 44.3 °F 30.18 in North 10 mph 8.2 mph 92 % 0 in
07:19 46.5 °F 44.3 °F 30.18 in North 13 mph 7.3 mph 92 % 0 in
07:24 46.5 °F 44.3 °F 30.18 in NNW 12 mph 5.8 mph 92 % 0 in
07:29 46.5 °F 44.6 °F 30.18 in NNW 17.3 mph 10.2 mph 93 % 0 in
07:34 46.6 °F 44.4 °F 30.18 in North 17.3 mph 9.8 mph 92 % 0 in
07:39 46.7 °F 44.5 °F 30.18 in NNW 11.5 mph 7 mph 92 % 0 in
07:44 46.8 °F 44.6 °F 30.18 in NNE 12 mph 12.6 mph 92 % 0 in
07:49 46.9 °F 44.7 °F 30.18 in NNE 11.5 mph 7.7 mph 92 % 0 in
07:54 46.9 °F 44.7 °F 30.18 in NNE 10.4 mph 8 mph 92 % 0 in
07:59 46.8 °F 44.6 °F 30.18 in NNE 10.4 mph 6.8 mph 92 % 0 in
08:04 46.7 °F 44.5 °F 30.18 in NNE 7 mph 6 mph 92 % 0 in
08:09 46.6 °F 44.4 °F 30.18 in NNE 11.5 mph 4 mph 92 % 0 in
08:14 46.5 °F 44.3 °F 30.18 in NNE 9.2 mph 5.9 mph 92 % 0 in
08:19 46.3 °F 44.1 °F 30.18 in NNE 10.4 mph 5.3 mph 92 % 0 in
08:24 46.2 °F 44 °F 30.18 in NNE 10.4 mph 4.2 mph 92 % 0 in
08:29 46.1 °F 44.2 °F 30.18 in NNE 10.4 mph 5.9 mph 93 % 0 in
08:34 46.2 °F 44.3 °F 30.18 in NNE 3.5 mph 3.4 mph 93 % 0 in
08:39 46.3 °F 44.4 °F 30.17 in NNE 9.2 mph 7.5 mph 93 % 0 in
08:42 46.3 °F 44.4 °F 30.17 in NNE 10.4 mph 7.8 mph 93 % 0 in
08:49 46.7 °F 44.8 °F 30.17 in NNE 11.5 mph 5.6 mph 93 % 0 in
08:54 46.8 °F 44.9 °F 30.16 in NNE 11.5 mph 7.1 mph 93 % 0 in
08:59 46.9 °F 44.7 °F 30.16 in North 9.2 mph 4.7 mph 92 % 0 in
09:04 47.1 °F 44.9 °F 30.16 in North 12.7 mph 7.9 mph 92 % 0 in
09:09 47.3 °F 45.1 °F 30.16 in NNE 11.5 mph 6.9 mph 92 % 0 in
09:14 47.6 °F 45.4 °F 30.16 in NNE 11.5 mph 8 mph 92 % 0 in
09:19 48 °F 45.5 °F 30.16 in North 12.7 mph 7.9 mph 91 % 0 in
09:24 48.3 °F 45.8 °F 30.15 in North 13.8 mph 7.7 mph 91 % 0 in
09:29 48.6 °F 45.5 °F 30.15 in North 16.1 mph 10.3 mph 89 % 0 in
09:34 48.9 °F 45.8 °F 30.15 in North 11.5 mph 6.8 mph 89 % 0 in
09:39 49.4 °F 46 °F 30.15 in North 11.5 mph 8.6 mph 88 % 0 in
09:44 49.8 °F 46.1 °F 30.15 in NW 12.7 mph 11.9 mph 87 % 0 in
09:49 50 °F 46 °F 30.15 in North 17.3 mph 12 mph 86 % 0 in
09:54 50.2 °F 45.9 °F 30.14 in North 18.4 mph 12.1 mph 85 % 0 in
09:59 50.4 °F 46.1 °F 30.14 in North 18.4 mph 10.1 mph 85 % 0 in
10:04 50.5 °F 45.8 °F 30.13 in North 26.5 mph 15.6 mph 84 % 0 in
10:09 50.6 °F 45.9 °F 30.13 in NNW 21 mph 11.4 mph 84 % 0 in
10:14 50.8 °F 45.8 °F 30.13 in North 11.5 mph 11.1 mph 83 % 0 in
10:19 50.9 °F 45.6 °F 30.12 in North 28.8 mph 10 mph 82 % 0 in
10:24 50.9 °F 45.6 °F 30.12 in NNW 28 mph 16.5 mph 82 % 0 in
10:29 51 °F 45.4 °F 30.12 in North 20.7 mph 13.5 mph 81 % 0 in
10:34 51.3 °F 45.7 °F 30.12 in NNE 17 mph 14.1 mph 81 % 0 in
10:39 51.1 °F 45.1 °F 30.12 in NW 20.7 mph 13.6 mph 80 % 0 in
10:44 51.2 °F 45.2 °F 30.12 in NNW 19.6 mph 10.9 mph 80 % 0 in
10:49 51.5 °F 45.5 °F 30.12 in NW 17.3 mph 12.5 mph 80 % 0 in
10:54 51.3 °F 45.3 °F 30.12 in NNW 20.7 mph 11.4 mph 80 % 0 in
10:59 51.3 °F 45.7 °F 30.12 in North 19.6 mph 12 mph 81 % 0 in
11:04 51.6 °F 45.6 °F 30.12 in North 17.3 mph 14.3 mph 80 % 0 in
11:09 51.7 °F 45.7 °F 30.11 in North 15 mph 7.4 mph 80 % 0 in
11:14 51.9 °F 45.9 °F 30.11 in NNW 19.6 mph 5.6 mph 80 % 0 in
11:19 52.2 °F 45.9 °F 30.11 in North 17.3 mph 12.5 mph 79 % 0 in
11:24 52.5 °F 46.5 °F 30.10 in North 13.8 mph 8.3 mph 80 % 0 in
11:29 52.6 °F 45.9 °F 30.10 in North 17.3 mph 11.1 mph 78 % 0 in
11:34 52.7 °F 46 °F 30.10 in NNW 17.3 mph 12.3 mph 78 % 0 in
11:39 53 °F 46.3 °F 30.09 in North 16.1 mph 9.8 mph 78 % 0 in
11:44 53.1 °F 46.4 °F 30.09 in NNW 19.6 mph 9.8 mph 78 % 0 in
11:49 53.1 °F 46.4 °F 30.08 in North 23 mph 14.6 mph 78 % 0 in
11:54 53.2 °F 46.5 °F 30.07 in NNW 21.9 mph 11.8 mph 78 % 0 in
11:59 53.2 °F 46.5 °F 30.07 in NNW 19.6 mph 16.8 mph 78 % 0 in
12:04 53.3 °F 46.6 °F 30.07 in North 20 mph 13.2 mph 78 % 0 in
12:09 53.3 °F 46.6 °F 30.07 in North 17.3 mph 13.6 mph 78 % 0 in
12:14 53.4 °F 46.7 °F 30.07 in NW 15 mph 14.7 mph 78 % 0 in
12:19 54 °F 47.6 °F 30.07 in North 15 mph 11.6 mph 79 % 0 in
12:24 54.6 °F 47.9 °F 30.07 in NNE 17.3 mph 7.2 mph 78 % 0 in
12:29 55.2 °F 47.8 °F 30.06 in NNW 11.5 mph 8.1 mph 76 % 0 in
12:34 55.6 °F 47.4 °F 30.06 in North 21.9 mph 11.1 mph 74 % 0 in
12:39 55.9 °F 47.4 °F 30.05 in North 12.7 mph 11 mph 73 % 0 in
12:44 56.1 °F 47.6 °F 30.05 in NNW 16.1 mph 6.6 mph 73 % 0 in
12:49 56.4 °F 47.1 °F 30.04 in North 16.1 mph 9 mph 71 % 0 in
12:54 56.4 °F 47.5 °F 30.04 in North 13.8 mph 9 mph 72 % 0 in
12:59 56.7 °F 47.8 °F 30.04 in North 16.1 mph 5.7 mph 72 % 0 in
13:04 57 °F 47.7 °F 30.03 in North 13.8 mph 4.7 mph 71 % 0 in
13:09 56.9 °F 47.2 °F 30.02 in North 20.7 mph 10.2 mph 70 % 0 in
13:14 57.2 °F 47.1 °F 30.02 in North 13.8 mph 10 mph 69 % 0 in
13:19 57.7 °F 47.2 °F 30.02 in NW 17 mph 11.3 mph 68 % 0 in
13:24 57.6 °F 46.7 °F 30.01 in NNE 20.7 mph 12.8 mph 67 % 0 in
13:29 57.5 °F 47 °F 30.01 in NNW 21.9 mph 9.6 mph 68 % 0 in
13:34 57.9 °F 47.4 °F 30.01 in NNW 18.4 mph 9.6 mph 68 % 0 in
13:39 58 °F 45.9 °F 30.00 in NNW 18.4 mph 11 mph 64 % 0 in
13:44 58.1 °F 47.6 °F 30.00 in North 13.8 mph 9.2 mph 68 % 0 in
13:49 58 °F 46.3 °F 30.00 in North 24.2 mph 13.8 mph 65 % 0 in
13:54 57.9 °F 46.6 °F 30.00 in NNW 19.6 mph 12.8 mph 66 % 0 in
13:59 58.1 °F 46.8 °F 29.99 in North 18 mph 11.5 mph 66 % 0 in
14:04 58.4 °F 46.7 °F 29.99 in North 18.4 mph 11.3 mph 65 % 0 in
14:09 58.2 °F 45.7 °F 29.99 in North 23 mph 11.5 mph 63 % 0 in
14:14 58.5 °F 47.2 °F 29.99 in North 13.8 mph 9.5 mph 66 % 0 in
14:19 58.4 °F 47.1 °F 29.99 in NNW 19.6 mph 14.9 mph 66 % 0 in
14:24 58.1 °F 46.8 °F 29.98 in North 18.4 mph 12.1 mph 66 % 0 in
14:29 58.1 °F 46.8 °F 29.98 in North 19.6 mph 14.4 mph 66 % 0 in
14:34 58.3 °F 47 °F 29.98 in North 17.3 mph 12.4 mph 66 % 0 in
14:35 58.3 °F 47 °F 29.98 in North 15 mph 12 mph 66 % 0 in
18:54 55.5 °F 41.4 °F 29.89 in North 16.1 mph 11.1 mph 59 % 0 in
18:59 55.5 °F 41.4 °F 29.89 in NNW 12.7 mph 7.1 mph 59 % 0 in
19:04 55.4 °F 40.9 °F 29.89 in North 12.7 mph 6.8 mph 58 % 0 in
19:09 55.3 °F 41.2 °F 29.89 in NNW 15 mph 7.2 mph 59 % 0 in
19:14 55 °F 40.9 °F 29.89 in NNW 10.4 mph 7.7 mph 59 % 0 in
19:19 54.9 °F 41.3 °F 29.89 in North 19.6 mph 7.4 mph 60 % 0 in
19:24 54.7 °F 41.5 °F 29.89 in NNW 10.4 mph 6.8 mph 61 % 0 in
19:29 54.4 °F 41.6 °F 29.89 in NNW 11.5 mph 8.1 mph 62 % 0 in
19:34 54.2 °F 41.9 °F 29.88 in North 10.4 mph 8.6 mph 63 % 0 in
19:39 54.1 °F 41.8 °F 29.88 in NNW 10.4 mph 7.9 mph 63 % 0 in
19:44 54 °F 41.7 °F 29.88 in NNE 10.4 mph 8.3 mph 63 % 0 in
19:49 53.8 °F 41.9 °F 29.87 in North 11.5 mph 7.9 mph 64 % 0 in
19:54 53.5 °F 41.6 °F 29.87 in North 9.2 mph 6.4 mph 64 % 0 in
19:59 53.4 °F 41.5 °F 29.88 in North 11 mph 5.1 mph 64 % 0 in
20:04 53.4 °F 41.5 °F 29.88 in North 9.2 mph 5.2 mph 64 % 0 in
20:09 53.4 °F 41.1 °F 29.88 in North 11.5 mph 5.4 mph 63 % 0 in
20:14 53.4 °F 41.1 °F 29.88 in NNW 12.7 mph 5.8 mph 63 % 0 in
20:19 53.2 °F 40.9 °F 29.87 in North 11.5 mph 6.2 mph 63 % 0 in
20:24 53.1 °F 40.4 °F 29.87 in North 8.1 mph 5 mph 62 % 0 in
Ararat Weather
Compliments of Weather Underground - 1.75 mb
Click here to send mail.


ABOUT

Live weather data from Ararat, Victoria, Australia, 3377
Data uploaded from Cumulus every 5 minutes to Weather Underground.
This site then downloads the raw data for formatting and display.
Metric and imperial data can be displayed. Graphs and historical data available.
Includes Sun and Moon times and rain image live from BOM.

Check out Ararat Weather on Facebook, Twitter and Google +

Help support ongoing costs by checking out the ads





Follow @AraratWeather